sensor_id;sensor_type;location;lat;lon;timestamp;P1;durP1;ratioP1;P2;durP2;ratioP2
50906;SDS011;36882;27.680;85.304;2022-09-06T00:01:49;24.92;;;18.15;;
50906;SDS011;36882;27.680;85.304;2022-09-06T00:04:20;24.65;;;17.15;;
50906;SDS011;36882;27.680;85.304;2022-09-06T00:06:50;21.85;;;17.38;;
50906;SDS011;36882;27.680;85.304;2022-09-06T00:09:21;36.35;;;18.10;;
50906;SDS011;36882;27.680;85.304;2022-09-06T00:11:51;19.38;;;16.40;;
50906;SDS011;36882;27.680;85.304;2022-09-06T00:14:23;23.33;;;16.02;;
50906;SDS011;36882;27.680;85.304;2022-09-06T00:16:54;25.70;;;19.58;;
50906;SDS011;36882;27.680;85.304;2022-09-06T00:19:25;33.08;;;21.00;;
50906;SDS011;36882;27.680;85.304;2022-09-06T00:21:55;25.45;;;19.25;;
50906;SDS011;36882;27.680;85.304;2022-09-06T00:24:25;26.98;;;18.15;;
50906;SDS011;36882;27.680;85.304;2022-09-06T00:26:56;25.90;;;19.60;;
50906;SDS011;36882;27.680;85.304;2022-09-06T00:29:26;30.63;;;18.90;;
50906;SDS011;36882;27.680;85.304;2022-09-06T00:31:57;28.50;;;19.63;;
50906;SDS011;36882;27.680;85.304;2022-09-06T00:34:28;27.85;;;16.92;;
50906;SDS011;36882;27.680;85.304;2022-09-06T00:36:58;24.25;;;16.38;;
50906;SDS011;36882;27.680;85.304;2022-09-06T00:39:29;24.48;;;18.20;;
50906;SDS011;36882;27.680;85.304;2022-09-06T00:41:59;19.10;;;15.43;;
50906;SDS011;36882;27.680;85.304;2022-09-06T00:44:29;27.25;;;15.93;;
50906;SDS011;36882;27.680;85.304;2022-09-06T00:47:03;23.02;;;14.40;;
50906;SDS011;36882;27.680;85.304;2022-09-06T00:49:37;20.65;;;15.95;;
50906;SDS011;36882;27.680;85.304;2022-09-06T00:52:13;18.30;;;15.20;;
50906;SDS011;36882;27.680;85.304;2022-09-06T00:54:45;28.40;;;15.95;;
50906;SDS011;36882;27.680;85.304;2022-09-06T00:57:16;26.95;;;16.75;;
50906;SDS011;36882;27.680;85.304;2022-09-06T00:59:47;24.83;;;16.35;;
50906;SDS011;36882;27.680;85.304;2022-09-06T01:02:18;29.15;;;18.02;;
50906;SDS011;36882;27.680;85.304;2022-09-06T01:04:49;29.10;;;16.67;;
50906;SDS011;36882;27.680;85.304;2022-09-06T01:07:32;35.28;;;17.85;;
50906;SDS011;36882;27.680;85.304;2022-09-06T01:16:12;34.30;;;21.35;;
50906;SDS011;36882;27.680;85.304;2022-09-06T01:28:01;30.10;;;19.83;;
50906;SDS011;36882;27.680;85.304;2022-09-06T01:30:56;47.88;;;20.92;;
50906;SDS011;36882;27.680;85.304;2022-09-06T01:36:45;36.17;;;20.50;;
50906;SDS011;36882;27.680;85.304;2022-09-06T01:39:36;38.20;;;20.20;;
50906;SDS011;36882;27.680;85.304;2022-09-06T01:42:11;40.88;;;23.95;;
50906;SDS011;36882;27.680;85.304;2022-09-06T01:44:51;41.97;;;24.27;;
50906;SDS011;36882;27.680;85.304;2022-09-06T01:47:38;46.85;;;26.52;;
50906;SDS011;36882;27.680;85.304;2022-09-06T01:53:31;46.50;;;27.52;;
50906;SDS011;36882;27.680;85.304;2022-09-06T02:02:17;40.40;;;27.83;;
50906;SDS011;36882;27.680;85.304;2022-09-06T02:05:19;53.28;;;32.83;;
50906;SDS011;36882;27.680;85.304;2022-09-06T02:08:11;57.22;;;33.53;;
50906;SDS011;36882;27.680;85.304;2022-09-06T02:10:58;49.45;;;31.15;;
50906;SDS011;36882;27.680;85.304;2022-09-06T02:13:34;37.90;;;29.88;;
50906;SDS011;36882;27.680;85.304;2022-09-06T02:16:07;52.85;;;30.70;;
50906;SDS011;36882;27.680;85.304;2022-09-06T02:18:42;37.22;;;28.20;;
50906;SDS011;36882;27.680;85.304;2022-09-06T02:21:29;58.38;;;31.42;;
50906;SDS011;36882;27.680;85.304;2022-09-06T02:24:03;50.30;;;30.08;;
50906;SDS011;36882;27.680;85.304;2022-09-06T02:26:38;46.08;;;29.98;;
50906;SDS011;36882;27.680;85.304;2022-09-06T02:29:12;37.83;;;27.30;;
50906;SDS011;36882;27.680;85.304;2022-09-06T02:31:44;50.25;;;34.22;;
50906;SDS011;36882;27.680;85.304;2022-09-06T02:34:19;48.53;;;30.38;;
50906;SDS011;36882;27.680;85.304;2022-09-06T02:36:50;46.88;;;29.73;;
50906;SDS011;36882;27.680;85.304;2022-09-06T02:39:20;48.17;;;27.65;;
50906;SDS011;36882;27.680;85.304;2022-09-06T02:41:52;45.00;;;28.75;;
50906;SDS011;36882;27.680;85.304;2022-09-06T02:44:23;45.55;;;28.02;;
50906;SDS011;36882;27.680;85.304;2022-09-06T02:46:53;49.63;;;31.42;;
50906;SDS011;36882;27.680;85.304;2022-09-06T02:49:24;52.20;;;26.50;;
50906;SDS011;36882;27.680;85.304;2022-09-06T02:51:54;40.90;;;26.80;;
50906;SDS011;36882;27.680;85.304;2022-09-06T02:54:25;43.35;;;28.65;;
50906;SDS011;36882;27.680;85.304;2022-09-06T02:56:55;43.58;;;28.40;;
50906;SDS011;36882;27.680;85.304;2022-09-06T02:59:26;43.22;;;29.90;;
50906;SDS011;36882;27.680;85.304;2022-09-06T03:01:56;46.47;;;29.23;;
50906;SDS011;36882;27.680;85.304;2022-09-06T03:04:27;40.60;;;30.05;;
50906;SDS011;36882;27.680;85.304;2022-09-06T03:06:58;50.80;;;30.40;;
50906;SDS011;36882;27.680;85.304;2022-09-06T03:09:28;50.38;;;25.98;;
50906;SDS011;36882;27.680;85.304;2022-09-06T03:11:59;60.92;;;33.90;;
50906;SDS011;36882;27.680;85.304;2022-09-06T03:14:30;51.58;;;29.35;;
50906;SDS011;36882;27.680;85.304;2022-09-06T03:17:01;49.63;;;33.58;;
50906;SDS011;36882;27.680;85.304;2022-09-06T03:19:32;48.50;;;34.05;;
50906;SDS011;36882;27.680;85.304;2022-09-06T03:22:02;48.42;;;33.55;;
50906;SDS011;36882;27.680;85.304;2022-09-06T03:24:33;45.70;;;32.08;;
50906;SDS011;36882;27.680;85.304;2022-09-06T03:27:03;54.60;;;36.05;;
50906;SDS011;36882;27.680;85.304;2022-09-06T03:29:33;56.53;;;35.08;;
50906;SDS011;36882;27.680;85.304;2022-09-06T03:32:04;57.78;;;35.80;;
50906;SDS011;36882;27.680;85.304;2022-09-06T03:34:34;58.25;;;37.60;;
50906;SDS011;36882;27.680;85.304;2022-09-06T03:37:04;45.25;;;33.13;;
50906;SDS011;36882;27.680;85.304;2022-09-06T03:39:35;62.50;;;35.58;;
50906;SDS011;36882;27.680;85.304;2022-09-06T03:42:06;62.20;;;34.97;;
50906;SDS011;36882;27.680;85.304;2022-09-06T03:44:36;46.88;;;34.60;;
50906;SDS011;36882;27.680;85.304;2022-09-06T03:47:07;45.45;;;31.25;;
50906;SDS011;36882;27.680;85.304;2022-09-06T03:49:37;41.90;;;26.95;;
50906;SDS011;36882;27.680;85.304;2022-09-06T03:52:07;46.58;;;31.65;;
50906;SDS011;36882;27.680;85.304;2022-09-06T03:54:38;56.17;;;30.00;;
50906;SDS011;36882;27.680;85.304;2022-09-06T03:57:09;46.85;;;35.83;;
50906;SDS011;36882;27.680;85.304;2022-09-06T03:59:39;37.53;;;30.40;;
50906;SDS011;36882;27.680;85.304;2022-09-06T04:02:10;43.20;;;24.08;;
50906;SDS011;36882;27.680;85.304;2022-09-06T04:04:41;48.25;;;27.27;;
50906;SDS011;36882;27.680;85.304;2022-09-06T04:07:12;39.50;;;28.52;;
50906;SDS011;36882;27.680;85.304;2022-09-06T04:09:42;43.97;;;29.40;;
50906;SDS011;36882;27.680;85.304;2022-09-06T04:12:13;46.20;;;29.00;;
50906;SDS011;36882;27.680;85.304;2022-09-06T04:14:43;45.53;;;29.00;;
50906;SDS011;36882;27.680;85.304;2022-09-06T04:17:13;38.97;;;27.25;;
50906;SDS011;36882;27.680;85.304;2022-09-06T04:19:44;39.53;;;27.23;;
50906;SDS011;36882;27.680;85.304;2022-09-06T04:22:15;58.85;;;28.65;;
50906;SDS011;36882;27.680;85.304;2022-09-06T04:24:45;32.50;;;22.42;;
50906;SDS011;36882;27.680;85.304;2022-09-06T04:27:16;31.80;;;22.65;;
50906;SDS011;36882;27.680;85.304;2022-09-06T04:29:46;28.23;;;19.60;;
50906;SDS011;36882;27.680;85.304;2022-09-06T04:32:17;28.02;;;18.20;;
50906;SDS011;36882;27.680;85.304;2022-09-06T04:34:47;27.40;;;18.65;;
50906;SDS011;36882;27.680;85.304;2022-09-06T04:37:18;34.03;;;25.25;;
50906;SDS011;36882;27.680;85.304;2022-09-06T04:39:48;32.30;;;22.25;;
50906;SDS011;36882;27.680;85.304;2022-09-06T04:42:19;26.10;;;19.67;;
50906;SDS011;36882;27.680;85.304;2022-09-06T04:44:49;41.38;;;29.92;;
50906;SDS011;36882;27.680;85.304;2022-09-06T04:47:20;41.58;;;29.05;;
50906;SDS011;36882;27.680;85.304;2022-09-06T04:49:51;47.33;;;28.08;;
50906;SDS011;36882;27.680;85.304;2022-09-06T04:52:25;50.90;;;26.42;;
50906;SDS011;36882;27.680;85.304;2022-09-06T04:54:56;46.55;;;26.75;;
50906;SDS011;36882;27.680;85.304;2022-09-06T04:57:27;38.90;;;28.00;;
50906;SDS011;36882;27.680;85.304;2022-09-06T04:59:57;46.28;;;28.92;;
50906;SDS011;36882;27.680;85.304;2022-09-06T05:02:28;40.70;;;24.67;;
50906;SDS011;36882;27.680;85.304;2022-09-06T05:04:58;36.72;;;25.45;;
50906;SDS011;36882;27.680;85.304;2022-09-06T05:07:30;28.23;;;18.30;;
50906;SDS011;36882;27.680;85.304;2022-09-06T05:10:00;25.40;;;18.55;;
50906;SDS011;36882;27.680;85.304;2022-09-06T05:12:31;30.83;;;20.00;;
50906;SDS011;36882;27.680;85.304;2022-09-06T05:15:09;24.77;;;19.50;;
50906;SDS011;36882;27.680;85.304;2022-09-06T05:17:40;26.88;;;18.35;;
50906;SDS011;36882;27.680;85.304;2022-09-06T05:20:11;35.83;;;20.98;;
50906;SDS011;36882;27.680;85.304;2022-09-06T05:22:42;29.15;;;20.90;;
50906;SDS011;36882;27.680;85.304;2022-09-06T05:25:20;33.13;;;20.90;;
50906;SDS011;36882;27.680;85.304;2022-09-06T05:27:50;37.35;;;20.75;;
50906;SDS011;36882;27.680;85.304;2022-09-06T05:30:21;29.30;;;21.92;;
50906;SDS011;36882;27.680;85.304;2022-09-06T05:32:52;32.60;;;20.02;;
50906;SDS011;36882;27.680;85.304;2022-09-06T05:35:26;27.73;;;20.00;;
50906;SDS011;36882;27.680;85.304;2022-09-06T05:37:57;28.42;;;20.33;;
50906;SDS011;36882;27.680;85.304;2022-09-06T05:40:27;29.27;;;18.88;;
50906;SDS011;36882;27.680;85.304;2022-09-06T05:43:00;37.00;;;20.30;;
50906;SDS011;36882;27.680;85.304;2022-09-06T05:45:31;28.27;;;18.77;;
50906;SDS011;36882;27.680;85.304;2022-09-06T05:48:02;30.17;;;20.05;;
50906;SDS011;36882;27.680;85.304;2022-09-06T05:50:32;36.08;;;20.75;;
50906;SDS011;36882;27.680;85.304;2022-09-06T05:53:03;27.58;;;21.48;;
50906;SDS011;36882;27.680;85.304;2022-09-06T05:55:33;26.20;;;18.77;;
50906;SDS011;36882;27.680;85.304;2022-09-06T05:58:08;29.10;;;20.70;;
50906;SDS011;36882;27.680;85.304;2022-09-06T06:00:40;28.83;;;19.85;;
50906;SDS011;36882;27.680;85.304;2022-09-06T06:03:10;29.95;;;18.70;;
50906;SDS011;36882;27.680;85.304;2022-09-06T06:05:45;27.63;;;19.02;;
50906;SDS011;36882;27.680;85.304;2022-09-06T06:08:16;31.85;;;21.15;;
50906;SDS011;36882;27.680;85.304;2022-09-06T06:29:13;19.83;;;13.57;;
50906;SDS011;36882;27.680;85.304;2022-09-06T06:31:45;18.33;;;14.07;;
50906;SDS011;36882;27.680;85.304;2022-09-06T06:34:16;20.73;;;14.32;;
50906;SDS011;36882;27.680;85.304;2022-09-06T06:36:49;21.60;;;13.13;;
50906;SDS011;36882;27.680;85.304;2022-09-06T06:39:20;18.13;;;12.88;;
50906;SDS011;36882;27.680;85.304;2022-09-06T06:41:51;19.83;;;12.85;;
50906;SDS011;36882;27.680;85.304;2022-09-06T06:44:22;20.83;;;13.05;;
50906;SDS011;36882;27.680;85.304;2022-09-06T06:46:56;18.92;;;12.55;;
50906;SDS011;36882;27.680;85.304;2022-09-06T06:49:29;20.42;;;13.50;;
50906;SDS011;36882;27.680;85.304;2022-09-06T06:52:00;25.75;;;13.10;;
50906;SDS011;36882;27.680;85.304;2022-09-06T06:54:30;23.38;;;13.38;;
50906;SDS011;36882;27.680;85.304;2022-09-06T06:57:01;25.63;;;12.55;;
50906;SDS011;36882;27.680;85.304;2022-09-06T06:59:32;23.55;;;12.85;;
50906;SDS011;36882;27.680;85.304;2022-09-06T07:02:02;21.50;;;11.10;;
50906;SDS011;36882;27.680;85.304;2022-09-06T07:04:33;23.08;;;12.57;;
50906;SDS011;36882;27.680;85.304;2022-09-06T07:07:04;23.65;;;13.25;;
50906;SDS011;36882;27.680;85.304;2022-09-06T07:09:56;16.92;;;12.95;;
50906;SDS011;36882;27.680;85.304;2022-09-06T07:12:46;23.80;;;19.15;;
50906;SDS011;36882;27.680;85.304;2022-09-06T07:15:17;30.73;;;19.75;;
50906;SDS011;36882;27.680;85.304;2022-09-06T07:17:47;21.70;;;14.50;;
50906;SDS011;36882;27.680;85.304;2022-09-06T07:20:18;14.18;;;11.20;;
50906;SDS011;36882;27.680;85.304;2022-09-06T07:25:53;14.13;;;11.75;;
50906;SDS011;36882;27.680;85.304;2022-09-06T07:28:25;61.03;;;42.45;;
50906;SDS011;36882;27.680;85.304;2022-09-06T07:30:55;18.35;;;14.80;;
50906;SDS011;36882;27.680;85.304;2022-09-06T07:33:27;20.48;;;12.25;;
50906;SDS011;36882;27.680;85.304;2022-09-06T07:35:59;21.67;;;12.55;;
50906;SDS011;36882;27.680;85.304;2022-09-06T07:38:30;15.68;;;12.35;;
50906;SDS011;36882;27.680;85.304;2022-09-06T07:41:04;14.52;;;10.75;;
50906;SDS011;36882;27.680;85.304;2022-09-06T07:43:36;20.98;;;18.15;;
50906;SDS011;36882;27.680;85.304;2022-09-06T07:49:13;17.35;;;13.25;;
50906;SDS011;36882;27.680;85.304;2022-09-06T07:51:43;16.02;;;11.75;;
50906;SDS011;36882;27.680;85.304;2022-09-06T07:54:14;22.52;;;12.60;;
50906;SDS011;36882;27.680;85.304;2022-09-06T07:57:05;16.77;;;11.32;;
50906;SDS011;36882;27.680;85.304;2022-09-06T07:59:36;20.00;;;12.15;;
50906;SDS011;36882;27.680;85.304;2022-09-06T08:02:14;17.48;;;11.77;;
50906;SDS011;36882;27.680;85.304;2022-09-06T08:04:46;18.35;;;11.40;;
50906;SDS011;36882;27.680;85.304;2022-09-06T08:07:19;19.33;;;11.85;;
50906;SDS011;36882;27.680;85.304;2022-09-06T08:10:06;22.42;;;11.98;;
50906;SDS011;36882;27.680;85.304;2022-09-06T08:12:38;18.13;;;12.15;;
50906;SDS011;36882;27.680;85.304;2022-09-06T08:15:08;17.70;;;12.50;;
50906;SDS011;36882;27.680;85.304;2022-09-06T08:17:39;33.10;;;17.10;;
50906;SDS011;36882;27.680;85.304;2022-09-06T08:20:09;19.35;;;13.80;;
50906;SDS011;36882;27.680;85.304;2022-09-06T08:22:40;18.27;;;14.23;;
50906;SDS011;36882;27.680;85.304;2022-09-06T08:25:10;22.70;;;16.02;;
50906;SDS011;36882;27.680;85.304;2022-09-06T08:27:45;23.92;;;14.30;;
50906;SDS011;36882;27.680;85.304;2022-09-06T08:30:15;24.50;;;15.00;;
50906;SDS011;36882;27.680;85.304;2022-09-06T08:32:45;23.80;;;15.65;;
50906;SDS011;36882;27.680;85.304;2022-09-06T08:35:16;21.08;;;16.17;;
50906;SDS011;36882;27.680;85.304;2022-09-06T08:37:47;21.65;;;16.13;;
50906;SDS011;36882;27.680;85.304;2022-09-06T08:40:19;27.17;;;17.38;;
50906;SDS011;36882;27.680;85.304;2022-09-06T08:42:53;21.42;;;15.73;;
50906;SDS011;36882;27.680;85.304;2022-09-06T08:45:24;27.95;;;17.00;;
50906;SDS011;36882;27.680;85.304;2022-09-06T08:47:56;39.10;;;18.77;;
50906;SDS011;36882;27.680;85.304;2022-09-06T08:50:27;26.25;;;17.38;;
50906;SDS011;36882;27.680;85.304;2022-09-06T08:53:06;24.70;;;16.35;;
50906;SDS011;36882;27.680;85.304;2022-09-06T08:56:04;21.80;;;16.95;;
50906;SDS011;36882;27.680;85.304;2022-09-06T09:01:39;28.17;;;18.85;;
50906;SDS011;36882;27.680;85.304;2022-09-06T09:04:32;25.65;;;18.05;;
50906;SDS011;36882;27.680;85.304;2022-09-06T09:10:04;30.70;;;16.40;;
50906;SDS011;36882;27.680;85.304;2022-09-06T09:12:42;29.75;;;17.42;;
50906;SDS011;36882;27.680;85.304;2022-09-06T09:15:16;23.90;;;16.83;;
50906;SDS011;36882;27.680;85.304;2022-09-06T09:17:48;23.33;;;16.40;;
50906;SDS011;36882;27.680;85.304;2022-09-06T09:20:20;27.70;;;16.23;;
50906;SDS011;36882;27.680;85.304;2022-09-06T09:22:52;27.35;;;15.80;;
50906;SDS011;36882;27.680;85.304;2022-09-06T09:25:24;28.67;;;18.20;;
50906;SDS011;36882;27.680;85.304;2022-09-06T09:27:55;25.50;;;17.35;;
50906;SDS011;36882;27.680;85.304;2022-09-06T09:30:26;19.67;;;15.98;;
50906;SDS011;36882;27.680;85.304;2022-09-06T09:33:33;66.45;;;40.45;;
50906;SDS011;36882;27.680;85.304;2022-09-06T09:36:08;28.95;;;16.90;;
50906;SDS011;36882;27.680;85.304;2022-09-06T09:38:43;25.30;;;18.02;;
50906;SDS011;36882;27.680;85.304;2022-09-06T09:41:26;24.58;;;16.40;;
50906;SDS011;36882;27.680;85.304;2022-09-06T09:44:02;21.00;;;14.32;;
50906;SDS011;36882;27.680;85.304;2022-09-06T09:46:47;34.85;;;24.77;;
50906;SDS011;36882;27.680;85.304;2022-09-06T09:53:34;26.25;;;18.27;;
50906;SDS011;36882;27.680;85.304;2022-09-06T09:56:24;37.13;;;24.95;;
50906;SDS011;36882;27.680;85.304;2022-09-06T09:58:57;36.35;;;25.45;;
50906;SDS011;36882;27.680;85.304;2022-09-06T10:01:30;48.03;;;33.78;;
50906;SDS011;36882;27.680;85.304;2022-09-06T10:04:03;45.10;;;23.45;;
50906;SDS011;36882;27.680;85.304;2022-09-06T10:09:55;18.88;;;14.48;;
50906;SDS011;36882;27.680;85.304;2022-09-06T10:12:36;19.35;;;15.75;;
50906;SDS011;36882;27.680;85.304;2022-09-06T10:15:09;23.73;;;15.15;;
50906;SDS011;36882;27.680;85.304;2022-09-06T10:20:27;25.27;;;13.38;;
50906;SDS011;36882;27.680;85.304;2022-09-06T10:23:09;23.38;;;14.18;;
50906;SDS011;36882;27.680;85.304;2022-09-06T10:29:51;28.37;;;14.77;;
50906;SDS011;36882;27.680;85.304;2022-09-06T10:33:20;23.40;;;13.80;;
50906;SDS011;36882;27.680;85.304;2022-09-06T10:43:18;20.17;;;12.32;;
50906;SDS011;36882;27.680;85.304;2022-09-06T10:45:57;12.18;;;10.98;;
50906;SDS011;36882;27.680;85.304;2022-09-06T10:48:38;15.25;;;9.48;;
50906;SDS011;36882;27.680;85.304;2022-09-06T10:54:07;21.65;;;10.52;;
50906;SDS011;36882;27.680;85.304;2022-09-06T10:56:42;21.77;;;9.98;;
50906;SDS011;36882;27.680;85.304;2022-09-06T10:59:18;18.67;;;10.68;;
50906;SDS011;36882;27.680;85.304;2022-09-06T11:02:01;19.30;;;9.60;;
50906;SDS011;36882;27.680;85.304;2022-09-06T11:04:47;25.77;;;9.02;;
50906;SDS011;36882;27.680;85.304;2022-09-06T11:07:42;21.08;;;10.38;;
50906;SDS011;36882;27.680;85.304;2022-09-06T11:10:36;21.52;;;10.77;;
50906;SDS011;36882;27.680;85.304;2022-09-06T11:13:16;23.13;;;11.65;;
50906;SDS011;36882;27.680;85.304;2022-09-06T11:15:53;27.80;;;13.15;;
50906;SDS011;36882;27.680;85.304;2022-09-06T11:18:34;23.98;;;13.93;;
50906;SDS011;36882;27.680;85.304;2022-09-06T11:21:28;28.27;;;13.43;;
50906;SDS011;36882;27.680;85.304;2022-09-06T11:27:35;17.20;;;11.20;;
50906;SDS011;36882;27.680;85.304;2022-09-06T11:30:12;22.88;;;14.40;;
50906;SDS011;36882;27.680;85.304;2022-09-06T11:32:45;19.52;;;11.80;;
50906;SDS011;36882;27.680;85.304;2022-09-06T11:35:20;31.33;;;13.27;;
50906;SDS011;36882;27.680;85.304;2022-09-06T11:40:59;21.13;;;12.65;;
50906;SDS011;36882;27.680;85.304;2022-09-06T11:43:47;22.30;;;12.88;;
50906;SDS011;36882;27.680;85.304;2022-09-06T11:49:27;25.83;;;13.95;;
50906;SDS011;36882;27.680;85.304;2022-09-06T11:54:34;23.35;;;13.90;;
50906;SDS011;36882;27.680;85.304;2022-09-06T11:57:14;18.85;;;13.40;;
50906;SDS011;36882;27.680;85.304;2022-09-06T11:59:55;18.73;;;13.80;;
50906;SDS011;36882;27.680;85.304;2022-09-06T12:02:36;19.13;;;13.93;;
50906;SDS011;36882;27.680;85.304;2022-09-06T12:05:11;19.17;;;13.70;;
50906;SDS011;36882;27.680;85.304;2022-09-06T12:10:59;22.48;;;11.75;;
50906;SDS011;36882;27.680;85.304;2022-09-06T12:13:33;16.25;;;10.77;;
50906;SDS011;36882;27.680;85.304;2022-09-06T12:16:11;15.32;;;11.48;;
50906;SDS011;36882;27.680;85.304;2022-09-06T12:18:52;15.77;;;11.40;;
50906;SDS011;36882;27.680;85.304;2022-09-06T12:24:49;22.90;;;13.18;;
50906;SDS011;36882;27.680;85.304;2022-09-06T12:27:28;20.10;;;14.25;;
50906;SDS011;36882;27.680;85.304;2022-09-06T12:30:03;22.50;;;12.77;;
50906;SDS011;36882;27.680;85.304;2022-09-06T12:32:41;21.40;;;11.43;;
50906;SDS011;36882;27.680;85.304;2022-09-06T12:35:19;19.83;;;13.48;;
50906;SDS011;36882;27.680;85.304;2022-09-06T12:38:13;22.52;;;11.80;;
50906;SDS011;36882;27.680;85.304;2022-09-06T12:40:45;23.92;;;12.50;;
50906;SDS011;36882;27.680;85.304;2022-09-06T12:43:19;16.10;;;10.88;;
50906;SDS011;36882;27.680;85.304;2022-09-06T12:45:50;22.30;;;12.18;;
50906;SDS011;36882;27.680;85.304;2022-09-06T12:48:25;23.63;;;12.43;;
50906;SDS011;36882;27.680;85.304;2022-09-06T12:51:02;21.63;;;11.13;;
50906;SDS011;36882;27.680;85.304;2022-09-06T12:53:35;17.90;;;10.07;;
50906;SDS011;36882;27.680;85.304;2022-09-06T12:56:08;22.48;;;9.90;;
50906;SDS011;36882;27.680;85.304;2022-09-06T12:58:40;26.77;;;10.95;;
50906;SDS011;36882;27.680;85.304;2022-09-06T13:01:14;30.77;;;11.90;;
50906;SDS011;36882;27.680;85.304;2022-09-06T13:06:26;26.30;;;16.15;;
50906;SDS011;36882;27.680;85.304;2022-09-06T13:08:58;27.85;;;17.98;;
50906;SDS011;36882;27.680;85.304;2022-09-06T13:11:30;23.33;;;15.40;;
50906;SDS011;36882;27.680;85.304;2022-09-06T13:14:16;28.90;;;16.60;;
50906;SDS011;36882;27.680;85.304;2022-09-06T13:16:50;27.98;;;16.00;;
50906;SDS011;36882;27.680;85.304;2022-09-06T13:19:34;31.20;;;15.68;;
50906;SDS011;36882;27.680;85.304;2022-09-06T13:22:09;33.03;;;17.27;;
50906;SDS011;36882;27.680;85.304;2022-09-06T13:24:42;39.03;;;23.13;;
50906;SDS011;36882;27.680;85.304;2022-09-06T13:27:33;34.85;;;20.83;;
50906;SDS011;36882;27.680;85.304;2022-09-06T13:30:06;40.10;;;23.08;;
50906;SDS011;36882;27.680;85.304;2022-09-06T13:32:44;50.03;;;22.90;;
50906;SDS011;36882;27.680;85.304;2022-09-06T13:35:33;45.60;;;22.90;;
50906;SDS011;36882;27.680;85.304;2022-09-06T13:41:03;39.10;;;22.35;;
50906;SDS011;36882;27.680;85.304;2022-09-06T13:43:42;35.42;;;21.85;;
50906;SDS011;36882;27.680;85.304;2022-09-06T13:46:13;35.88;;;22.65;;
50906;SDS011;36882;27.680;85.304;2022-09-06T13:48:44;43.45;;;24.00;;
50906;SDS011;36882;27.680;85.304;2022-09-06T13:51:14;31.10;;;20.88;;
50906;SDS011;36882;27.680;85.304;2022-09-06T13:53:46;32.80;;;17.00;;
50906;SDS011;36882;27.680;85.304;2022-09-06T13:56:16;28.45;;;16.45;;
50906;SDS011;36882;27.680;85.304;2022-09-06T13:58:47;30.83;;;16.38;;
50906;SDS011;36882;27.680;85.304;2022-09-06T14:01:17;31.80;;;18.77;;
50906;SDS011;36882;27.680;85.304;2022-09-06T14:03:48;37.70;;;18.25;;
50906;SDS011;36882;27.680;85.304;2022-09-06T14:06:20;31.80;;;18.70;;
50906;SDS011;36882;27.680;85.304;2022-09-06T14:08:50;41.17;;;19.10;;
50906;SDS011;36882;27.680;85.304;2022-09-06T14:11:33;28.00;;;18.65;;
50906;SDS011;36882;27.680;85.304;2022-09-06T14:14:04;30.00;;;19.17;;
50906;SDS011;36882;27.680;85.304;2022-09-06T14:16:35;35.25;;;18.98;;
50906;SDS011;36882;27.680;85.304;2022-09-06T14:19:05;34.47;;;20.25;;
50906;SDS011;36882;27.680;85.304;2022-09-06T14:21:36;32.20;;;19.63;;
50906;SDS011;36882;27.680;85.304;2022-09-06T14:24:06;27.75;;;18.05;;
50906;SDS011;36882;27.680;85.304;2022-09-06T14:26:37;22.52;;;14.68;;
50906;SDS011;36882;27.680;85.304;2022-09-06T14:29:09;29.58;;;16.50;;
50906;SDS011;36882;27.680;85.304;2022-09-06T14:31:39;27.00;;;16.20;;
50906;SDS011;36882;27.680;85.304;2022-09-06T14:34:09;20.15;;;14.77;;
50906;SDS011;36882;27.680;85.304;2022-09-06T14:36:40;32.33;;;17.00;;
50906;SDS011;36882;27.680;85.304;2022-09-06T14:39:10;24.27;;;16.08;;
50906;SDS011;36882;27.680;85.304;2022-09-06T14:41:41;29.52;;;18.85;;
50906;SDS011;36882;27.680;85.304;2022-09-06T14:44:12;23.02;;;16.95;;
50906;SDS011;36882;27.680;85.304;2022-09-06T14:46:43;24.50;;;15.02;;
50906;SDS011;36882;27.680;85.304;2022-09-06T14:49:15;35.08;;;18.42;;
50906;SDS011;36882;27.680;85.304;2022-09-06T14:51:46;26.98;;;17.40;;
50906;SDS011;36882;27.680;85.304;2022-09-06T14:54:17;31.13;;;16.77;;
50906;SDS011;36882;27.680;85.304;2022-09-06T14:56:54;27.08;;;17.48;;
50906;SDS011;36882;27.680;85.304;2022-09-06T14:59:25;23.73;;;16.15;;
50906;SDS011;36882;27.680;85.304;2022-09-06T15:01:55;28.10;;;17.17;;
50906;SDS011;36882;27.680;85.304;2022-09-06T15:04:26;23.00;;;16.42;;
50906;SDS011;36882;27.680;85.304;2022-09-06T15:06:57;28.77;;;16.67;;
50906;SDS011;36882;27.680;85.304;2022-09-06T15:09:28;32.03;;;16.45;;
50906;SDS011;36882;27.680;85.304;2022-09-06T15:11:59;28.52;;;18.08;;
50906;SDS011;36882;27.680;85.304;2022-09-06T15:14:29;28.98;;;16.80;;
50906;SDS011;36882;27.680;85.304;2022-09-06T15:17:00;25.17;;;16.83;;
50906;SDS011;36882;27.680;85.304;2022-09-06T15:19:33;23.55;;;16.65;;
50906;SDS011;36882;27.680;85.304;2022-09-06T15:22:05;24.38;;;14.98;;
50906;SDS011;36882;27.680;85.304;2022-09-06T15:24:36;34.67;;;17.30;;
50906;SDS011;36882;27.680;85.304;2022-09-06T15:27:07;23.67;;;16.27;;
50906;SDS011;36882;27.680;85.304;2022-09-06T15:29:38;25.65;;;16.10;;
50906;SDS011;36882;27.680;85.304;2022-09-06T15:32:09;30.08;;;16.35;;
50906;SDS011;36882;27.680;85.304;2022-09-06T15:34:39;27.73;;;15.10;;
50906;SDS011;36882;27.680;85.304;2022-09-06T15:37:10;26.13;;;15.95;;
50906;SDS011;36882;27.680;85.304;2022-09-06T15:39:40;31.88;;;17.63;;
50906;SDS011;36882;27.680;85.304;2022-09-06T15:42:11;24.90;;;16.58;;
50906;SDS011;36882;27.680;85.304;2022-09-06T15:44:41;36.10;;;17.40;;
50906;SDS011;36882;27.680;85.304;2022-09-06T15:47:12;30.17;;;17.05;;
50906;SDS011;36882;27.680;85.304;2022-09-06T15:49:42;24.60;;;17.80;;
50906;SDS011;36882;27.680;85.304;2022-09-06T15:52:12;27.77;;;17.63;;
50906;SDS011;36882;27.680;85.304;2022-09-06T15:54:43;28.33;;;16.52;;
50906;SDS011;36882;27.680;85.304;2022-09-06T15:57:27;23.73;;;16.33;;
50906;SDS011;36882;27.680;85.304;2022-09-06T15:59:58;23.40;;;14.68;;
50906;SDS011;36882;27.680;85.304;2022-09-06T16:02:28;21.77;;;12.07;;
50906;SDS011;36882;27.680;85.304;2022-09-06T16:04:59;18.27;;;13.52;;
50906;SDS011;36882;27.680;85.304;2022-09-06T16:07:30;15.45;;;10.43;;
50906;SDS011;36882;27.680;85.304;2022-09-06T16:10:01;15.82;;;9.82;;
50906;SDS011;36882;27.680;85.304;2022-09-06T16:12:32;13.05;;;8.80;;
50906;SDS011;36882;27.680;85.304;2022-09-06T16:15:02;20.65;;;9.63;;
50906;SDS011;36882;27.680;85.304;2022-09-06T16:17:33;17.17;;;9.93;;
50906;SDS011;36882;27.680;85.304;2022-09-06T16:20:04;14.55;;;9.30;;
50906;SDS011;36882;27.680;85.304;2022-09-06T16:22:35;15.48;;;9.75;;
50906;SDS011;36882;27.680;85.304;2022-09-06T16:25:06;17.27;;;10.70;;
50906;SDS011;36882;27.680;85.304;2022-09-06T16:27:37;23.25;;;14.13;;
50906;SDS011;36882;27.680;85.304;2022-09-06T16:30:07;26.67;;;18.48;;
50906;SDS011;36882;27.680;85.304;2022-09-06T16:32:38;29.27;;;19.05;;
50906;SDS011;36882;27.680;85.304;2022-09-06T16:35:09;28.88;;;21.17;;